Time;durP1;ratioP1;P1;durP2;ratioP2;P2;SDS_P1;SDS_P2;PMS_P1;PMS_P2;Temp;Humidity;BMP_temperature;BMP_pressure;BME280_temperature;BME280_humidity;BME280_pressure;Samples;Min_cycle;Max_cycle;Signal;HPM_P1;HPM_P2
2021/04/12 00:00:09;;;;;;;3.53;2.60;;;7.00;83.60;;;;;;3583360;40;20047;-69
2021/04/12 00:02:56;;;;;;;4.10;3.22;;;7.00;82.90;;;;;;3582854;40;20044;-69
2021/04/12 00:05:54;;;;;;;3.08;2.67;;;7.00;82.90;;;;;;3583271;40;20318;-69
2021/04/12 00:08:27;;;;;;;4.22;3.10;;;6.90;83.30;;;;;;3582335;40;20029;-71
2021/04/12 00:11:09;;;;;;;4.18;3.45;;;6.90;83.50;;;;;;3582986;39;20032;-72
2021/04/12 00:13:57;;;;;;;4.78;3.42;;;6.90;83.80;;;;;;3581095;40;20036;-71
2021/04/12 00:16:30;;;;;;;4.22;3.40;;;7.00;83.40;;;;;;3582984;40;20039;-71
2021/04/12 00:19:21;;;;;;;5.28;4.05;;;7.00;83.70;;;;;;3582040;39;20044;-73
2021/04/12 00:21:56;;;;;;;4.22;3.72;;;7.00;82.90;;;;;;3582753;40;20562;-71
2021/04/12 00:24:28;;;;;;;4.45;4.03;;;7.00;83.50;;;;;;3583757;40;20058;-71
2021/04/12 00:27:17;;;;;;;4.97;4.03;;;6.90;83.60;;;;;;3584809;40;20079;-71
2021/04/12 00:29:49;;;;;;;5.57;4.28;;;6.90;82.30;;;;;;3582954;40;20856;-71
2021/04/12 00:32:21;;;;;;;7.82;4.50;;;6.80;83.60;;;;;;3581256;40;20126;-71
2021/04/12 00:35:09;;;;;;;8.13;4.30;;;6.80;84.20;;;;;;3582268;39;20028;-71
2021/04/12 00:37:50;;;;;;;6.72;4.28;;;6.80;84.10;;;;;;3583759;40;20090;-71
2021/04/12 00:40:45;;;;;;;4.32;3.60;;;6.70;83.80;;;;;;3583097;39;20028;-71
2021/04/12 00:43:30;;;;;;;6.00;4.32;;;6.70;84.00;;;;;;3580308;40;20039;-70
2021/04/12 00:46:34;;;;;;;5.75;4.28;;;6.70;83.70;;;;;;3582787;40;20036;-71
2021/04/12 00:49:14;;;;;;;7.25;4.65;;;6.70;84.30;;;;;;3583639;40;20043;-71
2021/04/12 00:52:04;;;;;;;6.47;4.18;;;6.70;83.90;;;;;;3583532;40;20481;-72
2021/04/12 00:54:53;;;;;;;6.03;4.78;;;6.70;84.20;;;;;;3581935;40;20060;-71
2021/04/12 00:57:48;;;;;;;5.63;4.35;;;6.70;84.50;;;;;;3581012;40;20457;-65
2021/04/12 01:00:32;;;;;;;4.63;3.83;;;6.70;84.30;;;;;;3580333;40;20041;-65
2021/04/12 01:03:08;;;;;;;4.47;4.03;;;6.70;83.90;;;;;;3580025;40;20046;-66
2021/04/12 01:05:43;;;;;;;5.93;3.75;;;6.70;84.40;;;;;;3581528;40;20052;-65
2021/04/12 01:08:38;;;;;;;5.28;4.28;;;6.80;84.80;;;;;;3583116;40;20118;-65
2021/04/12 01:11:32;;;;;;;6.13;4.47;;;6.80;84.80;;;;;;3580741;40;20529;-66
2021/04/12 01:14:18;;;;;;;6.85;4.10;;;6.80;84.70;;;;;;3581464;39;20061;-65
2021/04/12 01:17:10;;;;;;;7.18;5.03;;;6.70;84.30;;;;;;3582932;40;20036;-65
2021/04/12 01:20:13;;;;;;;5.18;3.97;;;6.70;84.40;;;;;;3581498;40;20417;-65
2021/04/12 01:23:03;;;;;;;6.10;3.80;;;6.60;84.20;;;;;;3581869;40;20297;-65
2021/04/12 01:26:02;;;;;;;5.28;3.50;;;6.60;84.20;;;;;;3583532;40;20032;-65
2021/04/12 01:28:58;;;;;;;3.80;3.22;;;6.60;84.70;;;;;;3581713;40;20084;-65
2021/04/12 01:31:36;;;;;;;3.83;2.90;;;6.50;85.10;;;;;;3579970;40;20036;-65
2021/04/12 01:34:39;;;;;;;3.08;2.78;;;6.50;84.30;;;;;;3582475;39;20051;-65
2021/04/12 01:37:20;;;;;;;3.63;2.83;;;6.40;84.30;;;;;;3582656;40;20963;-65
2021/04/12 01:39:57;;;;;;;4.00;2.53;;;6.40;84.90;;;;;;3581775;40;20040;-65
2021/04/12 01:42:48;;;;;;;4.80;2.72;;;6.50;85.00;;;;;;3581067;40;20036;-65
2021/04/12 01:46:04;;;;;;;5.22;3.50;;;6.50;85.10;;;;;;3581582;40;20028;-65
2021/04/12 01:49:07;;;;;;;4.38;3.47;;;6.60;83.80;;;;;;3578657;40;20036;-65
2021/04/12 01:51:52;;;;;;;9.80;3.85;;;6.50;83.30;;;;;;3583013;40;20047;-65
2021/04/12 01:54:20;;;;;;;5.22;3.38;;;6.50;84.30;;;;;;3581695;40;20044;-65
2021/04/12 01:57:13;;;;;;;5.03;4.13;;;6.60;84.60;;;;;;3581725;40;20044;-65
2021/04/12 02:00:11;;;;;;;3.92;3.40;;;6.60;84.50;;;;;;3580750;40;20044;-65
2021/04/12 02:03:00;;;;;;;5.18;3.70;;;6.70;84.40;;;;;;3581275;40;20822;-65
2021/04/12 02:06:01;;;;;;;6.43;4.03;;;6.70;84.50;;;;;;3581001;39;20040;-65
2021/04/12 02:09:04;;;;;;;5.00;3.60;;;6.70;84.70;;;;;;3581450;39;20047;-65
2021/04/12 02:11:32;;;;;;;6.78;4.03;;;6.70;85.00;;;;;;3581056;40;20401;-65
2021/04/12 02:14:23;;;;;;;5.05;4.13;;;6.70;85.20;;;;;;3582804;39;20036;-65
2021/04/12 02:17:20;;;;;;;4.95;4.18;;;6.70;85.40;;;;;;3584665;39;20032;-65
2021/04/12 02:20:08;;;;;;;4.65;3.67;;;6.80;85.30;;;;;;3583539;40;20024;-65
2021/04/12 02:22:53;;;;;;;7.65;4.28;;;6.80;84.90;;;;;;3580837;39;20033;-65
2021/04/12 02:25:41;;;;;;;4.93;3.70;;;6.90;84.50;;;;;;3582967;40;20090;-65
2021/04/12 02:28:16;;;;;;;5.82;4.25;;;6.80;85.00;;;;;;3583331;40;20146;-65
2021/04/12 02:30:50;;;;;;;5.07;3.95;;;6.80;85.20;;;;;;3582931;39;20714;-65
2021/04/12 02:33:25;;;;;;;6.70;3.80;;;6.80;85.00;;;;;;3584160;40;20029;-65
2021/04/12 02:36:27;;;;;;;5.35;3.97;;;6.90;85.20;;;;;;3583232;40;20301;-65
2021/04/12 02:39:06;;;;;;;7.40;3.80;;;6.90;85.50;;;;;;3582054;40;20040;-65
2021/04/12 02:42:07;;;;;;;6.93;3.65;;;7.00;85.20;;;;;;3583297;39;20068;-65
2021/04/12 02:44:53;;;;;;;6.03;3.70;;;6.90;85.20;;;;;;3583457;40;20020;-65
2021/04/12 02:47:49;;;;;;;8.05;3.92;;;7.00;84.90;;;;;;3582716;40;20032;-65
2021/04/12 02:50:30;;;;;;;4.85;3.38;;;7.00;85.20;;;;;;3582507;40;20751;-65
2021/04/12 02:53:23;;;;;;;4.50;3.45;;;7.00;84.90;;;;;;3582351;39;20021;-65
2021/04/12 02:56:15;;;;;;;5.32;3.60;;;7.00;85.10;;;;;;3582592;40;20041;-65
2021/04/12 02:59:38;;;;;;;5.30;3.25;;;7.10;85.00;;;;;;3582031;40;20548;-64
2021/04/12 03:02:31;;;;;;;6.15;3.70;;;7.10;84.30;;;;;;3565962;40;20044;-64
2021/04/12 03:05:51;;;;;;;5.90;3.97;;;7.00;84.60;;;;;;3574857;40;20091;-65
2021/04/12 03:08:54;;;;;;;5.25;3.53;;;7.00;84.50;;;;;;3547464;40;20782;-65
2021/04/12 03:11:44;;;;;;;6.85;3.88;;;6.90;84.20;;;;;;3589487;39;20711;-66
2021/04/12 03:14:38;;;;;;;8.00;4.22;;;7.00;84.10;;;;;;3585354;40;20043;-69
2021/04/12 03:17:22;;;;;;;5.75;3.30;;;6.90;84.10;;;;;;3583689;39;20044;-67
2021/04/12 03:19:59;;;;;;;5.65;3.65;;;6.90;84.30;;;;;;3581913;40;20372;-64
2021/04/12 03:22:38;;;;;;;5.55;3.60;;;6.90;84.00;;;;;;3584791;40;20035;-64
2021/04/12 03:25:34;;;;;;;4.85;3.25;;;6.90;84.50;;;;;;3584567;40;20042;-64
2021/04/12 03:28:18;;;;;;;3.65;3.10;;;6.80;84.30;;;;;;3582703;40;20037;-66
2021/04/12 03:30:44;;;;;;;6.32;3.30;;;6.90;84.10;;;;;;3586181;39;20109;-64
2021/04/12 03:33:34;;;;;;;5.78;3.28;;;6.90;84.50;;;;;;3585181;39;20045;-68
2021/04/12 03:36:27;;;;;;;8.70;3.80;;;6.90;84.20;;;;;;3584656;40;20033;-64
2021/04/12 03:39:02;;;;;;;7.03;3.55;;;6.90;85.00;;;;;;3584306;40;21009;-66
2021/04/12 03:41:40;;;;;;;7.80;4.57;;;6.90;84.10;;;;;;3584973;39;20036;-65
2021/04/12 03:44:17;;;;;;;6.10;3.70;;;6.90;84.20;;;;;;3584138;40;20091;-64
2021/04/12 03:46:53;;;;;;;6.00;3.63;;;7.00;84.20;;;;;;3583905;40;20516;-67
2021/04/12 03:49:29;;;;;;;5.00;3.38;;;7.00;83.80;;;;;;3583435;39;20397;-66
2021/04/12 03:52:20;;;;;;;;;;;6.90;83.40;;;;;;3584324;39;20064;-65
2021/04/12 03:54:59;;;;;;;7.03;3.67;;;6.90;83.90;;;;;;3586418;40;19989;-65
2021/04/12 03:57:53;;;;;;;6.97;4.32;;;6.90;83.40;;;;;;3583042;39;20030;-65
2021/04/12 04:00:24;;;;;;;6.93;3.83;;;6.90;84.60;;;;;;3584007;40;20044;-65
2021/04/12 04:03:25;;;;;;;6.55;3.80;;;6.90;84.50;;;;;;3585251;39;20039;-66
2021/04/12 04:06:09;;;;;;;5.68;3.28;;;6.90;84.20;;;;;;3583254;39;20040;-64
2021/04/12 04:09:08;;;;;;;4.20;3.00;;;6.80;83.10;;;;;;3585335;40;20020;-64
2021/04/12 04:12:03;;;;;;;6.22;3.50;;;6.80;83.10;;;;;;3583599;40;20036;-65
2021/04/12 04:15:00;;;;;;;4.32;2.80;;;6.80;83.40;;;;;;3578743;39;20385;-65
2021/04/12 04:18:00;;;;;;;5.65;3.30;;;6.90;84.10;;;;;;3584633;40;20040;-66
2021/04/12 04:20:45;;;;;;;9.13;2.72;;;6.90;83.00;;;;;;3583155;40;20058;-66
2021/04/12 04:24:05;;;;;;;4.35;3.28;;;6.90;83.50;;;;;;3582797;40;20122;-65
2021/04/12 04:26:50;;;;;;;5.30;3.25;;;6.90;83.90;;;;;;3572862;40;20040;-65
2021/04/12 04:29:21;;;;;;;5.25;3.15;;;6.90;82.70;;;;;;3583652;40;20080;-67
2021/04/12 04:32:11;;;;;;;6.90;2.85;;;6.90;82.70;;;;;;3583894;40;20720;-65
2021/04/12 04:35:15;;;;;;;4.07;2.60;;;6.90;83.50;;;;;;3584285;40;20040;-66
2021/04/12 04:38:17;;;;;;;5.93;2.80;;;6.90;82.50;;;;;;3584343;40;20779;-65
2021/04/12 04:41:03;;;;;;;5.30;2.78;;;6.90;82.90;;;;;;3583360;40;21020;-64
2021/04/12 04:43:40;;;;;;;4.05;2.58;;;6.90;82.90;;;;;;3585330;39;20016;-63
2021/04/12 04:46:20;;;;;;;3.97;2.67;;;6.90;82.80;;;;;;3581587;40;20306;-65
2021/04/12 04:49:04;;;;;;;3.55;2.72;;;6.90;82.70;;;;;;3585264;39;20048;-65
2021/04/12 04:51:50;;;;;;;4.38;2.25;;;6.90;82.10;;;;;;3583864;40;20016;-64
2021/04/12 04:54:29;;;;;;;5.93;2.88;;;6.90;81.40;;;;;;3583127;40;20622;-65
2021/04/12 04:57:25;;;;;;;6.60;3.80;;;6.90;82.30;;;;;;3582991;40;20721;-65
2021/04/12 05:00:23;;;;;;;4.22;2.92;;;6.90;82.20;;;;;;3584190;40;20306;-65
2021/04/12 05:03:10;;;;;;;9.10;4.22;;;6.90;82.70;;;;;;3570682;39;20032;-65
2021/04/12 05:06:21;;;;;;;7.68;3.40;;;6.90;81.80;;;;;;3582021;40;20134;-65
2021/04/12 05:09:10;;;;;;;4.90;3.42;;;7.00;82.60;;;;;;3583702;40;20135;-65
2021/04/12 05:12:32;;;;;;;6.05;3.17;;;7.00;82.20;;;;;;3585009;40;20032;-65
2021/04/12 05:15:32;;;;;;;5.45;2.72;;;7.10;81.90;;;;;;3584745;40;20040;-65
2021/04/12 05:18:16;;;;;;;5.32;2.63;;;7.00;81.60;;;;;;3583463;40;20149;-65
2021/04/12 05:21:04;;;;;;;6.80;2.85;;;7.00;82.10;;;;;;3582711;40;20039;-65
2021/04/12 05:23:30;;;;;;;7.25;2.85;;;7.10;82.80;;;;;;3585124;40;20032;-64
2021/04/12 05:26:14;;;;;;;4.40;2.53;;;7.10;82.60;;;;;;3583475;40;20105;-65
2021/04/12 05:29:18;;;;;;;3.55;2.10;;;7.10;80.90;;;;;;3585217;40;20608;-65
2021/04/12 05:31:46;;;;;;;6.00;2.33;;;7.10;81.10;;;;;;3582618;40;21047;-69
2021/04/12 05:34:31;;;;;;;4.80;2.55;;;7.10;80.80;;;;;;3583299;39;20030;-64
2021/04/12 05:36:59;;;;;;;4.13;2.38;;;7.10;80.70;;;;;;3583900;40;20090;-65
2021/04/12 05:39:56;;;;;;;5.63;2.80;;;7.10;81.00;;;;;;3582586;39;20330;-65
2021/04/12 05:42:30;;;;;;;5.35;2.20;;;7.20;80.00;;;;;;3585890;40;20089;-66
2021/04/12 05:45:14;;;;;;;7.38;3.00;;;7.20;80.60;;;;;;3581132;40;20016;-65
2021/04/12 05:47:59;;;;;;;6.53;3.72;;;7.30;80.50;;;;;;3583500;40;20078;-66
2021/04/12 05:50:48;;;;;;;7.95;3.40;;;7.30;81.00;;;;;;3585620;40;20031;-63
2021/04/12 05:53:52;;;;;;;5.60;2.65;;;7.40;80.90;;;;;;3583010;40;20032;-63
2021/04/12 05:56:39;;;;;;;4.78;3.00;;;7.40;81.00;;;;;;3582433;39;20730;-63
2021/04/12 05:59:18;;;;;;;5.53;2.70;;;7.40;80.40;;;;;;3583683;40;20036;-65
2021/04/12 06:02:11;;;;;;;5.13;3.20;;;7.40;80.30;;;;;;3581914;40;20090;-65
2021/04/12 06:04:43;;;;;;;5.50;2.88;;;7.50;80.10;;;;;;3583475;40;20069;-65
2021/04/12 06:07:17;;;;;;;6.53;3.85;;;7.50;79.90;;;;;;3584051;39;20255;-66
2021/04/12 06:10:05;;;;;;;3.97;2.42;;;7.50;80.60;;;;;;3582948;40;20024;-64
2021/04/12 06:12:54;;;;;;;4.35;2.45;;;7.60;80.40;;;;;;3583741;40;20301;-65
2021/04/12 06:15:42;;;;;;;4.47;2.55;;;7.60;78.60;;;;;;3585410;39;20036;-65
2021/04/12 06:18:26;;;;;;;4.25;2.33;;;7.60;77.70;;;;;;3582416;40;20409;-65
2021/04/12 06:21:20;;;;;;;3.58;2.60;;;7.60;78.90;;;;;;3583313;39;20033;-65
2021/04/12 06:24:22;;;;;;;6.53;2.63;;;7.60;79.70;;;;;;3583532;40;20042;-64
2021/04/12 06:27:26;;;;;;;2.92;1.90;;;7.70;79.50;;;;;;3582208;40;20068;-65
2021/04/12 06:30:16;;;;;;;5.43;2.28;;;7.70;78.60;;;;;;3582425;40;20095;-65
2021/04/12 06:33:09;;;;;;;3.50;2.15;;;7.80;78.60;;;;;;3578362;40;20028;-65
2021/04/12 06:36:02;;;;;;;6.68;2.22;;;7.90;78.10;;;;;;3582535;39;20869;-65
2021/04/12 06:38:33;;;;;;;6.60;2.20;;;7.90;76.50;;;;;;3583122;40;20028;-66
2021/04/12 06:41:33;;;;;;;4.28;1.83;;;7.90;76.50;;;;;;3586889;39;20024;-66
2021/04/12 06:44:46;;;;;;;7.25;2.15;;;8.10;77.70;;;;;;3581091;40;20030;-65
2021/04/12 06:47:44;;;;;;;2.85;2.08;;;8.20;75.50;;;;;;3555451;40;20038;-65
2021/04/12 06:50:15;;;;;;;3.05;1.63;;;8.20;74.20;;;;;;3583401;40;20508;-65
2021/04/12 06:53:04;;;;;;;4.45;1.90;;;8.10;75.40;;;;;;3583723;39;20040;-65
2021/04/12 06:55:54;;;;;;;5.63;2.17;;;8.10;76.30;;;;;;3579843;39;20044;-66
2021/04/12 06:58:48;;;;;;;4.07;2.08;;;8.30;76.80;;;;;;3585215;40;20035;-65
2021/04/12 07:01:31;;;;;;;6.90;2.72;;;8.30;75.50;;;;;;3582325;40;20080;-63
2021/04/12 07:04:28;;;;;;;5.30;2.40;;;8.20;72.90;;;;;;3585268;40;20028;-63
2021/04/12 07:07:13;;;;;;;7.30;3.05;;;8.10;74.70;;;;;;3584595;40;20044;-63
2021/04/12 07:09:51;;;;;;;7.68;2.40;;;8.10;75.10;;;;;;3583907;40;20740;-63
2021/04/12 07:13:08;;;;;;;3.75;2.17;;;8.20;75.60;;;;;;3585205;40;20656;-64
2021/04/12 07:16:05;;;;;;;7.33;2.27;;;8.30;75.40;;;;;;3575794;40;20032;-63
2021/04/12 07:18:55;;;;;;;8.13;2.88;;;8.40;75.20;;;;;;3576640;40;20520;-63
2021/04/12 07:21:45;;;;;;;2.63;1.88;;;8.40;73.00;;;;;;3583340;40;20047;-64
2021/04/12 07:24:31;;;;;;;3.05;1.80;;;8.50;72.50;;;;;;3586112;40;20121;-63
2021/04/12 07:27:22;;;;;;;5.13;2.17;;;8.40;72.70;;;;;;3586192;40;20030;-66
2021/04/12 07:30:00;;;;;;;3.10;1.48;;;8.40;72.90;;;;;;3586938;40;20268;-63
2021/04/12 07:32:43;;;;;;;7.85;3.42;;;8.40;72.60;;;;;;3585472;40;20029;-64
2021/04/12 07:35:31;;;;;;;4.15;2.05;;;8.40;72.40;;;;;;3585626;40;20919;-64
2021/04/12 07:38:34;;;;;;;5.38;2.05;;;8.50;73.20;;;;;;3584276;40;20117;-63
2021/04/12 07:41:44;;;;;;;2.88;1.80;;;8.60;72.40;;;;;;3586079;40;20334;-64
2021/04/12 07:44:28;;;;;;;5.03;1.95;;;8.80;72.40;;;;;;3583172;40;20036;-64
2021/04/12 07:47:16;;;;;;;3.65;1.77;;;8.90;71.10;;;;;;3582773;40;20035;-63
2021/04/12 07:50:00;;;;;;;4.78;1.92;;;8.90;71.50;;;;;;3583191;40;20514;-64
2021/04/12 07:52:43;;;;;;;4.15;1.90;;;9.00;70.70;;;;;;3584777;40;20051;-63
2021/04/12 07:55:28;;;;;;;6.30;1.70;;;9.00;70.30;;;;;;3586437;40;20025;-64
2021/04/12 07:58:31;;;;;;;3.15;1.55;;;9.20;69.80;;;;;;3584332;40;21000;-63
2021/04/12 08:01:14;;;;;;;2.83;1.48;;;9.20;68.70;;;;;;3586144;40;20028;-64
2021/04/12 08:04:14;;;;;;;6.38;1.65;;;9.30;68.30;;;;;;3583655;40;20618;-64
2021/04/12 08:06:58;;;;;;;3.03;1.38;;;9.40;70.30;;;;;;3583165;40;20084;-64
2021/04/12 08:09:39;;;;;;;7.85;1.65;;;9.50;67.40;;;;;;3580479;39;20029;-64
2021/04/12 08:12:53;;;;;;;7.88;1.77;;;9.50;67.90;;;;;;3586298;39;20062;-62
2021/04/12 08:15:51;;;;;;;4.13;1.55;;;9.70;68.50;;;;;;3584399;40;20024;-64
2021/04/12 08:18:49;;;;;;;3.67;1.35;;;9.80;66.00;;;;;;3585328;40;20035;-63
2021/04/12 08:21:35;;;;;;;2.03;1.20;;;9.80;66.40;;;;;;3579563;39;20944;-63
2021/04/12 08:25:02;;;;;;;3.15;1.55;;;9.80;67.60;;;;;;3582609;40;20036;-63
2021/04/12 08:27:36;;;;;;;3.47;1.25;;;9.90;67.20;;;;;;3542334;40;20097;-70
2021/04/12 08:30:26;;;;;;;4.38;1.10;;;10.00;64.90;;;;;;3579926;40;20808;-67
2021/04/12 08:33:14;;;;;;;4.00;1.65;;;9.80;64.40;;;;;;3585866;40;20036;-69
2021/04/12 08:35:39;;;;;;;5.13;1.77;;;9.70;65.90;;;;;;3582709;40;20058;-67
2021/04/12 08:38:26;;;;;;;2.35;1.15;;;9.70;66.90;;;;;;3583236;39;20733;-68
2021/04/12 08:41:10;;;;;;;;;;;9.90;65.80;;;;;;3583605;40;20028;-68
2021/04/12 08:44:06;;;;;;;4.00;1.20;;;10.10;64.20;;;;;;3582302;39;19933;-68
2021/04/12 08:46:37;;;;;;;3.47;1.10;;;10.40;63.40;;;;;;3584626;40;20132;-67
2021/04/12 08:49:16;;;;;;;5.28;1.60;;;10.70;60.60;;;;;;3584750;40;20037;-67
2021/04/12 08:52:00;;;;;;;5.10;1.30;;;11.20;61.80;;;;;;3585365;40;20428;-67
2021/04/12 08:55:10;;;;;;;4.45;1.50;;;11.60;61.10;;;;;;3584702;40;20033;-68
2021/04/12 08:58:03;;;;;;;5.90;0.90;;;11.60;59.80;;;;;;3582221;40;20479;-67
2021/04/12 09:00:40;;;;;;;3.70;1.13;;;11.70;59.80;;;;;;3587170;39;20682;-67
2021/04/12 09:03:15;;;;;;;3.95;1.27;;;11.50;59.50;;;;;;3587377;40;20047;-67
2021/04/12 09:05:46;;;;;;;4.82;1.10;;;11.50;59.70;;;;;;3582749;40;20048;-68
2021/04/12 09:08:43;;;;;;;4.35;1.17;;;11.40;58.40;;;;;;3584210;40;20055;-67
2021/04/12 09:11:33;;;;;;;1.63;0.70;;;11.20;60.30;;;;;;3583237;40;20083;-67
2021/04/12 09:14:56;;;;;;;7.88;1.20;;;11.20;59.60;;;;;;3583930;40;20035;-68
2021/04/12 09:17:24;;;;;;;5.88;1.15;;;11.30;59.10;;;;;;3574588;40;20796;-67
2021/04/12 09:20:14;;;;;;;3.30;1.10;;;11.60;60.00;;;;;;3563425;40;20028;-67
2021/04/12 09:23:02;;;;;;;3.15;1.13;;;11.60;56.70;;;;;;3579976;40;20056;-67
2021/04/12 09:25:48;;;;;;;1.52;1.00;;;11.60;57.20;;;;;;3583933;40;20039;-67
2021/04/12 09:28:27;;;;;;;3.30;0.90;;;11.50;58.20;;;;;;3581296;40;20058;-67
2021/04/12 09:31:18;;;;;;;4.30;1.00;;;11.40;58.50;;;;;;3583336;39;20805;-67
2021/04/12 09:33:56;;;;;;;4.40;1.05;;;11.40;58.40;;;;;;3583672;40;21006;-67
2021/04/12 09:36:21;;;;;;;2.60;1.02;;;11.30;57.60;;;;;;3583044;40;20040;-68
2021/04/12 09:39:34;;;;;;;7.47;1.20;;;11.10;58.40;;;;;;3583477;39;20024;-67
2021/04/12 09:42:49;;;;;;;2.53;1.13;;;11.10;58.70;;;;;;3564232;40;20050;-68
2021/04/12 09:45:36;;;;;;;4.40;1.67;;;11.10;57.40;;;;;;3574285;40;20121;-68
2021/04/12 09:48:28;;;;;;;3.38;0.90;;;11.10;58.90;;;;;;3583851;39;20735;-68
2021/04/12 09:51:15;;;;;;;3.95;1.75;;;11.20;58.00;;;;;;3582534;40;20028;-67
2021/04/12 09:53:58;;;;;;;3.70;0.80;;;11.20;58.30;;;;;;3583622;40;20079;-68
2021/04/12 09:56:30;;;;;;;7.72;2.05;;;11.20;57.90;;;;;;3582144;39;20040;-68
2021/04/12 09:59:32;;;;;;;3.40;0.90;;;11.20;57.10;;;;;;3581197;40;20104;-68
2021/04/12 10:02:04;;;;;;;3.47;1.13;;;11.20;56.20;;;;;;3583272;40;20024;-68
2021/04/12 10:04:36;;;;;;;5.88;1.02;;;11.10;57.30;;;;;;3580424;40;20033;-67
2021/04/12 10:07:06;;;;;;;3.92;0.90;;;11.10;58.00;;;;;;3581073;40;20070;-69
2021/04/12 10:10:02;;;;;;;3.88;1.00;;;11.20;58.20;;;;;;3580332;40;20519;-68
2021/04/12 10:12:37;;;;;;;4.57;0.93;;;11.30;57.40;;;;;;3582950;40;20043;-68
2021/04/12 10:15:29;;;;;;;2.60;0.88;;;11.40;52.80;;;;;;3583057;40;20495;-73
2021/04/12 10:18:08;;;;;;;4.93;1.25;;;11.40;54.50;;;;;;3582694;40;20823;-73
2021/04/12 10:21:06;;;;;;;3.63;0.85;;;11.30;55.90;;;;;;3582470;39;20104;-68
2021/04/12 10:23:35;;;;;;;6.25;0.90;;;11.30;57.10;;;;;;3580639;40;20043;-69
2021/04/12 10:26:07;;;;;;;5.53;1.10;;;11.30;55.80;;;;;;3582948;39;20028;-68
2021/04/12 10:29:08;;;;;;;3.17;0.80;;;11.30;56.10;;;;;;3581678;39;20508;-69
2021/04/12 10:31:36;;;;;;;3.67;0.77;;;11.30;55.40;;;;;;3581941;40;20087;-69
2021/04/12 10:34:23;;;;;;;3.47;0.55;;;11.20;53.90;;;;;;3584118;39;20607;-65
2021/04/12 10:37:17;;;;;;;4.53;0.77;;;11.20;54.90;;;;;;3582758;40;20035;-65
2021/04/12 10:39:59;;;;;;;2.58;0.95;;;11.30;56.20;;;;;;3585477;40;20460;-65
2021/04/12 10:42:43;;;;;;;5.43;0.98;;;11.50;55.70;;;;;;3583041;40;20070;-64
2021/04/12 10:45:15;;;;;;;3.33;0.77;;;11.70;54.10;;;;;;3582985;40;20103;-65
2021/04/12 10:48:17;;;;;;;3.75;0.70;;;11.60;54.10;;;;;;3585035;39;20031;-65
2021/04/12 10:51:14;;;;;;;6.20;1.35;;;11.40;54.50;;;;;;3584691;40;20069;-65
2021/04/12 10:54:10;;;;;;;5.07;0.88;;;11.30;55.00;;;;;;3584052;40;20025;-64
2021/04/12 10:56:45;;;;;;;3.58;1.13;;;11.40;56.30;;;;;;3582451;40;20051;-65
2021/04/12 10:59:48;;;;;;;3.10;0.68;;;11.40;54.10;;;;;;3585266;40;20155;-64
2021/04/12 11:02:21;;;;;;;1.88;0.70;;;11.50;56.10;;;;;;3582524;40;20061;-65
2021/04/12 11:05:02;;;;;;;1.17;0.60;;;11.60;54.80;;;;;;3583410;40;20040;-63
2021/04/12 11:08:06;;;;;;;2.65;0.93;;;11.70;54.30;;;;;;3585666;40;20074;-64
2021/04/12 11:11:08;;;;;;;5.93;1.63;;;11.70;54.10;;;;;;3583538;40;20036;-64
2021/04/12 11:13:49;;;;;;;4.10;0.80;;;11.60;55.30;;;;;;3585688;39;20051;-64
2021/04/12 11:16:20;;;;;;;3.58;1.08;;;11.60;54.70;;;;;;3587878;39;20060;-64
2021/04/12 11:19:07;;;;;;;8.70;1.73;;;11.70;53.90;;;;;;3585182;39;20106;-66
2021/04/12 11:21:42;;;;;;;5.30;1.08;;;11.80;54.40;;;;;;3585040;39;20692;-64
2021/04/12 11:24:38;;;;;;;2.22;0.70;;;12.00;54.80;;;;;;3585545;39;20542;-64
2021/04/12 11:27:26;;;;;;;5.43;0.95;;;12.10;53.00;;;;;;3584124;39;20409;-64
2021/04/12 11:30:13;;;;;;;2.63;0.98;;;12.00;53.00;;;;;;3584675;40;20037;-65
2021/04/12 11:32:42;;;;;;;2.00;0.60;;;11.90;51.90;;;;;;3587173;40;20044;-63
2021/04/12 11:35:13;;;;;;;3.75;0.75;;;11.80;51.70;;;;;;3584000;39;20048;-63
2021/04/12 11:38:01;;;;;;;3.15;0.65;;;11.80;50.90;;;;;;3582695;40;20040;-63
2021/04/12 11:40:30;;;;;;;1.85;0.60;;;11.80;49.70;;;;;;3582416;40;20044;-63
2021/04/12 11:43:04;;;;;;;2.50;0.98;;;11.70;49.70;;;;;;3585567;40;20839;-65
2021/04/12 11:45:44;;;;;;;3.53;0.88;;;11.80;51.10;;;;;;3583212;39;20024;-66
2021/04/12 11:48:40;;;;;;;5.78;0.80;;;11.90;51.90;;;;;;3583441;40;20388;-66
2021/04/12 11:51:26;;;;;;;3.63;0.70;;;12.20;48.20;;;;;;3584253;40;20144;-65
2021/04/12 11:53:57;;;;;;;4.75;0.75;;;12.30;50.20;;;;;;3582780;39;20032;-66
2021/04/12 11:56:54;;;;;;;1.05;0.60;;;12.40;49.00;;;;;;3581421;40;20036;-66
2021/04/12 11:59:57;;;;;;;4.38;0.90;;;12.40;50.30;;;;;;3586174;40;20080;-67
2021/04/12 12:02:31;;;;;;;2.63;0.63;;;12.60;49.90;;;;;;3584405;40;20040;-66
2021/04/12 12:05:07;;;;;;;2.63;0.98;;;12.70;47.90;;;;;;3584803;39;20028;-66
2021/04/12 12:07:42;;;;;;;3.38;1.10;;;12.70;48.40;;;;;;3582828;40;20862;-66
2021/04/12 12:10:28;;;;;;;4.63;1.10;;;12.60;51.00;;;;;;3583598;40;20040;-65
2021/04/12 12:13:30;;;;;;;14.68;8.93;;;12.60;48.00;;;;;;3584107;40;20040;-66
2021/04/12 12:16:23;;;;;;;2.58;0.88;;;12.50;49.70;;;;;;3583034;40;20032;-65
2021/04/12 12:18:55;;;;;;;3.00;1.02;;;12.60;50.10;;;;;;3584797;39;20170;-66
2021/04/12 12:21:30;;;;;;;2.38;0.93;;;12.60;48.90;;;;;;3583212;40;20036;-67
2021/04/12 12:24:20;;;;;;;2.33;0.70;;;12.60;48.60;;;;;;3583421;39;20028;-71
2021/04/12 12:27:08;;;;;;;3.50;0.68;;;12.50;47.70;;;;;;3582880;40;20036;-71
2021/04/12 12:30:06;;;;;;;3.60;0.70;;;12.50;48.20;;;;;;3581518;39;20846;-70
2021/04/12 12:32:49;;;;;;;4.65;0.95;;;12.60;49.20;;;;;;3582631;40;20032;-72
2021/04/12 12:35:19;;;;;;;2.88;0.90;;;12.70;48.60;;;;;;3582517;40;20048;-72
2021/04/12 12:38:03;;;;;;;4.68;1.05;;;12.60;46.70;;;;;;3584555;40;20413;-72
2021/04/12 12:40:35;;;;;;;2.42;0.95;;;12.60;49.00;;;;;;3583116;40;20033;-72
2021/04/12 12:43:07;;;;;;;7.20;1.70;;;12.70;48.10;;;;;;3584833;40;20028;-77
2021/04/12 12:45:39;;;;;;;1.60;0.70;;;12.80;47.80;;;;;;3584557;40;20864;-72
2021/04/12 12:48:28;;;;;;;3.70;1.13;;;12.80;47.10;;;;;;3582306;40;20045;-71
2021/04/12 12:50:57;;;;;;;4.28;1.13;;;12.80;47.80;;;;;;3582108;40;20918;-72
2021/04/12 12:53:29;;;;;;;2.45;0.80;;;12.60;48.20;;;;;;3583740;40;20109;-70
2021/04/12 12:56:02;;;;;;;7.43;1.20;;;12.50;48.50;;;;;;3582786;39;20036;-72
2021/04/12 12:58:30;;;;;;;5.30;0.90;;;12.50;49.10;;;;;;3582682;40;20040;-76
2021/04/12 13:00:59;;;;;;;2.03;0.70;;;12.60;49.50;;;;;;3581772;40;20027;-68
2021/04/12 13:03:38;;;;;;;3.70;1.73;;;12.70;48.60;;;;;;3583065;40;20044;-70
2021/04/12 13:06:27;;;;;;;9.73;1.20;;;12.80;46.20;;;;;;3580536;40;20044;-70
2021/04/12 13:08:59;;;;;;;6.47;0.80;;;12.90;47.80;;;;;;3582507;40;20028;-73
2021/04/12 13:11:45;;;;;;;3.47;0.85;;;12.90;48.00;;;;;;3585708;39;20024;-73
2021/04/12 13:14:29;;;;;;;3.55;0.90;;;12.80;47.70;;;;;;3581550;40;20025;-71
2021/04/12 13:16:57;;;;;;;5.35;2.60;;;12.60;47.50;;;;;;3581673;40;20028;-71
2021/04/12 13:19:23;;;;;;;4.70;2.08;;;12.60;47.60;;;;;;3583981;39;20043;-72
2021/04/12 13:22:00;;;;;;;12.32;4.72;;;12.60;46.80;;;;;;3583118;39;20084;-72
2021/04/12 13:24:29;;;;;;;6.55;3.22;;;12.50;46.40;;;;;;3583866;39;20032;-73
2021/04/12 13:27:13;;;;;;;4.28;2.58;;;12.30;46.10;;;;;;3583945;39;20044;-71
2021/04/12 13:29:47;;;;;;;4.80;2.50;;;12.20;47.30;;;;;;3585836;39;20395;-73
2021/04/12 13:32:34;;;;;;;2.83;1.35;;;12.20;48.30;;;;;;3579311;40;20029;-73
2021/04/12 13:35:12;;;;;;;5.45;1.52;;;12.30;48.30;;;;;;3583097;40;20028;-72
2021/04/12 13:37:50;;;;;;;4.25;2.80;;;12.40;47.80;;;;;;3581892;40;20029;-70
2021/04/12 13:40:31;;;;;;;5.03;4.28;;;12.40;47.20;;;;;;3582715;40;20028;-72
2021/04/12 13:43:05;;;;;;;5.18;0.93;;;12.50;45.30;;;;;;3581053;40;20036;-74
2021/04/12 13:45:36;;;;;;;11.73;5.07;;;12.50;45.70;;;;;;3582401;40;20077;-73
2021/04/12 13:48:07;;;;;;;2.55;0.95;;;12.50;46.60;;;;;;3582503;40;20021;-72
2021/04/12 13:50:38;;;;;;;7.95;1.10;;;12.50;47.30;;;;;;3581629;40;20031;-73
2021/04/12 13:53:12;;;;;;;1.52;0.60;;;12.50;48.20;;;;;;3582557;40;20021;-72
2021/04/12 13:55:46;;;;;;;3.92;1.00;;;12.50;46.80;;;;;;3582449;39;20068;-71
2021/04/12 13:58:17;;;;;;;5.20;1.33;;;12.50;47.60;;;;;;3582431;40;20259;-72
2021/04/12 14:00:50;;;;;;;5.05;1.58;;;12.40;47.30;;;;;;3583309;40;20862;-72
2021/04/12 14:03:27;;;;;;;2.70;0.80;;;12.40;48.70;;;;;;3580847;40;20389;-72
2021/04/12 14:06:03;;;;;;;3.60;1.40;;;12.20;47.50;;;;;;3582147;40;20029;-72
2021/04/12 14:08:52;;;;;;;4.82;1.88;;;12.20;47.40;;;;;;3581769;39;20752;-72
2021/04/12 14:11:25;;;;;;;8.68;1.63;;;12.20;48.00;;;;;;3582061;40;20050;-73
2021/04/12 14:14:02;;;;;;;7.32;2.33;;;12.30;47.40;;;;;;3583983;40;20046;-72
2021/04/12 14:16:32;;;;;;;12.13;2.63;;;12.20;47.10;;;;;;3581577;39;20066;-71
2021/04/12 14:19:00;;;;;;;3.58;1.38;;;12.20;48.00;;;;;;3584652;40;20535;-72
2021/04/12 14:21:39;;;;;;;7.88;1.38;;;12.20;48.80;;;;;;3585366;40;20068;-72
2021/04/12 14:24:23;;;;;;;3.92;1.30;;;12.20;46.90;;;;;;3585767;39;20032;-72
2021/04/12 14:26:52;;;;;;;5.07;1.90;;;12.10;45.70;;;;;;3583735;40;20915;-71
2021/04/12 14:29:30;;;;;;;5.13;1.02;;;12.00;47.00;;;;;;3583385;40;20480;-72